METAR (acronimo di METeorological Air Report) è un messaggio meteo emesso nella maggior parte dei casi in ambito aeroportuale

LEMD - Madrid-Barajas, Spagna
Ultimo Aggiornamento: Lunedì 03 Agosto 2020 19:00 CEST
Sereno
Sereno
 Wind from Nord
Vento: Nord 15 km/h
Temperatura: 33°C
Punto di Rugiada: 4°C
Umidità: 16%
Barometro: 1014 hPa
Condizioni: Sereno
Visibilità: superiore a 10 km
2020/08/03 17:00 LEMD 031700Z 36008KT 330V030 CAVOK 33/04 Q1014 NOSIG
LPPT - Lisbona, Portogallo
Ultimo Aggiornamento: Lunedì 03 Agosto 2020 19:00 CEST
Qualche Nuvola
Qualche Nuvola
 Wind from Nord-Nord-Ovest
Vento: Nord-Nord-Ovest 35 km/h, Raffica: 57 km/h
Temperatura: 23°C
Punto di Rugiada: 16°C
Umidità: 65%
Barometro: 1017 hPa
Nuvole: Qualche Nuvola
Visibilità: 10 km
Nuvole nel Dettaglio: Qualche Nuvola 671 m
2020/08/03 17:00 LPPT 031700Z 33019G31KT 290V350 9999 FEW022 23/16 Q1017
LFPG - Parigi Charles de Gaulle, Francia
Ultimo Aggiornamento: Lunedì 03 Agosto 2020 19:00 CEST
Acquazzoni nelle vicinanze, Prevalentemente Nuvoloso
Acquazzoni nelle vicinanze, Prevalentemente Nuvoloso
 Wind from Nord
Vento: Nord 28 km/h
Temperatura: 19°C
Punto di Rugiada: 12°C
Umidità: 64%
Barometro: 1015 hPa
Condizioni: Acquazzoni nelle vicinanze
Nuvole: Prevalentemente Nuvoloso
Visibilità: 10 km
Nuvole nel Dettaglio: Parzialmente Nuvoloso 1280 m
Qualche Nuvola 1524 m
Prevalentemente Nuvoloso 1646 m
2020/08/03 17:00 LFPG 031700Z 36015KT 9999 VCSH SCT042 FEW050CB BKN054 19/12 Q1015 BECMG NSC
 
LSZB - Berna, Svizzera
Ultimo Aggiornamento: Lunedì 03 Agosto 2020 19:20 CEST
Pioggia Leggera, Prevalentemente Nuvoloso
Pioggia Leggera, Prevalentemente Nuvoloso
 Wind from Sud-Est
Vento: Sud-Est 11 km/h
Temperatura: 14°C
Punto di Rugiada: 14°C
Umidità: 100%
Barometro: 1014 hPa
Condizioni: Pioggia Leggera
Nuvole: Prevalentemente Nuvoloso
Visibilità: 10 km
Nuvole nel Dettaglio: Prevalentemente Nuvoloso 1981 m
2020/08/03 17:20 LSZB 031720Z 14006KT 110V170 9999 -RA BKN065 14/14 Q1014 NOSIG
LOWW - Vienna-Schwechat, Austria
Ultimo Aggiornamento: Lunedì 03 Agosto 2020 19:20 CEST
Qualche Nuvola
Qualche Nuvola
 Wind from Nord-Nord-Ovest
Vento: Nord-Nord-Ovest 13 km/h
Temperatura: 21°C
Punto di Rugiada: 17°C
Umidità: 78%
Barometro: 1007 hPa
Nuvole: Qualche Nuvola
Visibilità: 10 km
Nuvole nel Dettaglio: Qualche Nuvola 610 m
2020/08/03 17:20 LOWW 031720Z 33007KT 9999 FEW020 21/17 Q1007 TEMPO SHRA
LKPR - Praga-Ruzyne, Repubblica Ceca
Ultimo Aggiornamento: Lunedì 03 Agosto 2020 19:00 CEST
Qualche Nuvola
Qualche Nuvola
 Wind from Nord
Vento: Nord 15 km/h
Temperatura: 16°C
Punto di Rugiada: 14°C
Umidità: 88%
Barometro: 1010 hPa
Nuvole: Qualche Nuvola
Visibilità: 10 km
Nuvole nel Dettaglio: Qualche Nuvola 366 m
2020/08/03 17:00 LKPR 031700Z 35008KT 9999 FEW012 16/14 Q1010 NOSIG
 
LHBP - Budapest-Ferihegy, Ungheria
Ultimo Aggiornamento: Lunedì 03 Agosto 2020 19:14 CEST
Rovesci di Pioggia, Prevalentemente Nuvoloso
Rovesci di Pioggia, Prevalentemente Nuvoloso
 Wind from varies
Vento: variabile 4 km/h
Temperatura: 25°C
Punto di Rugiada: 18°C
Umidità: 65%
Barometro: 1006 hPa
Condizioni: Rovesci di Pioggia
Nuvole: Prevalentemente Nuvoloso
Visibilità: 7 km
Nuvole nel Dettaglio: Qualche Nuvola 1219 m
Parzialmente Nuvoloso 1341 m
Prevalentemente Nuvoloso 2804 m
2020/08/03 17:14 LHBP 031714Z VRB02KT 7000 SHRA FEW040TCU SCT044 BKN092 25/18 Q1006 TEMPO -SHRA
UUEE - Mosca-Seremetevo, Russia
Ultimo Aggiornamento: Lunedì 03 Agosto 2020 19:00 CEST
Sereno
Sereno
 Wind from Sud-Sud-Ovest
Vento: Sud-Sud-Ovest 11 km/h
Temperatura: 19°C
Punto di Rugiada: 9°C
Umidità: 52%
Barometro: 1015 hPa
Condizioni: Sereno
Visibilità: superiore a 10 km
2020/08/03 17:00 UUEE 031700Z 20003MPS CAVOK 19/09 Q1015 R24L/CLRD62 R24R/CLRD62 NOSIG
EYVI - Vilnius, Lituania
Ultimo Aggiornamento: Lunedì 03 Agosto 2020 19:20 CEST
Sereno
Sereno
 Wind from Sud-Sud-Est
Vento: Sud-Sud-Est 11 km/h
Temperatura: 21°C
Punto di Rugiada: 11°C
Umidità: 53%
Barometro: 1010 hPa
Condizioni: Sereno
Visibilità: superiore a 10 km
2020/08/03 17:20 EYVI 031720Z 16006KT CAVOK 21/11 Q1010 NOSIG
 
EVRA - Riga, Lettonia
Ultimo Aggiornamento: Lunedì 03 Agosto 2020 19:20 CEST
Qualche Nuvola
Qualche Nuvola
 Wind from Nord-Ovest
Vento: Nord-Ovest 6 km/h
Temperatura: 20°C
Punto di Rugiada: 16°C
Umidità: 78%
Barometro: 1009 hPa
Nuvole: Qualche Nuvola
Visibilità: 10 km
Nuvole nel Dettaglio: Qualche Nuvola 1097 m
2020/08/03 17:20 EVRA 031720Z 31003KT 280V360 9999 FEW036 20/16 Q1009 NOSIG
EETN - Tallinn, Estonia
Ultimo Aggiornamento: Lunedì 03 Agosto 2020 19:20 CEST
Qualche Nuvola
Qualche Nuvola
 Wind from Ovest
Vento: Ovest 15 km/h
Temperatura: 19°C
Punto di Rugiada: 15°C
Umidità: 78%
Barometro: 1008 hPa
Nuvole: Qualche Nuvola
Visibilità: 10 km
Nuvole nel Dettaglio: Qualche Nuvola 975 m
2020/08/03 17:20 EETN 031720Z 27008KT 9999 FEW032 19/15 Q1008 NOSIG
EKCH - Copenaghen, Danimarca
Ultimo Aggiornamento: Lunedì 03 Agosto 2020 19:20 CEST
Prevalentemente Nuvoloso
Prevalentemente Nuvoloso
 Wind from Nord-Nord-Est
Vento: Nord-Nord-Est 15 km/h
Temperatura: 18°C
Punto di Rugiada: 12°C
Umidità: 68%
Barometro: 1011 hPa
Nuvole: Prevalentemente Nuvoloso
Visibilità: 10 km
Nuvole nel Dettaglio: Prevalentemente Nuvoloso 1524 m
2020/08/03 17:20 EKCH 031720Z AUTO 03008KT 9999 BKN050/// 18/12 Q1011 NOSIG
 
ESSA - Stockholm Arlanda, Svezia
Ultimo Aggiornamento: Lunedì 03 Agosto 2020 19:20 CEST
Sereno
Sereno
 Wind from Ovest-Sud-Ovest
Vento: Ovest-Sud-Ovest 24 km/h
Temperatura: 19°C
Punto di Rugiada: 9°C
Umidità: 52%
Barometro: 1005 hPa
Condizioni: Sereno
Visibilità: superiore a 10 km
2020/08/03 17:20 ESSA 031720Z 24013KT CAVOK 19/09 Q1005 NOSIG
EDDT - Berlin Tegel, Germania
Ultimo Aggiornamento: Lunedì 03 Agosto 2020 19:20 CEST
Sereno
Sereno
 Wind from Nord-Nord-Ovest
Vento: Nord-Nord-Ovest 15 km/h
Temperatura: 22°C
Punto di Rugiada: 8°C
Umidità: 41%
Barometro: 1010 hPa
Condizioni: Sereno
Visibilità: superiore a 10 km
2020/08/03 17:20 EDDT 031720Z 34008KT 280V030 CAVOK 22/08 Q1010 NOSIG
EGLL - Londra-Heathrow, Inghilterra
Ultimo Aggiornamento: Lunedì 03 Agosto 2020 19:20 CEST
Sereno
Sereno
 Wind from Nord
Vento: Nord 11 km/h
Temperatura: 21°C
Punto di Rugiada: 5°C
Umidità: 35%
Barometro: 1015 hPa
Nuvole: Sereno
Visibilità: 10 km
2020/08/03 17:20 EGLL 031720Z AUTO 36006KT 310V040 9999 NCD 21/05 Q1015
 
EGPH - Edinburgh, Scotland
Ultimo Aggiornamento: Lunedì 03 Agosto 2020 19:20 CEST
Sereno
Sereno
 Wind from Ovest-Sud-Ovest
Vento: Ovest-Sud-Ovest 20 km/h
Temperatura: 16°C
Punto di Rugiada: 8°C
Umidità: 59%
Barometro: 1014 hPa
Condizioni: Sereno
Visibilità: superiore a 10 km
2020/08/03 17:20 EGPH 031720Z 25011KT CAVOK 16/08 Q1014
EPWA - Varsavia-Chopin, Polonia
Ultimo Aggiornamento: Lunedì 03 Agosto 2020 19:00 CEST
Sereno
Sereno
 Wind from Nord-Ovest
Vento: Nord-Ovest 17 km/h
Temperatura: 19°C
Punto di Rugiada: 17°C
Umidità: 88%
Barometro: 1008 hPa
Condizioni: Sereno
Visibilità: superiore a 10 km
2020/08/03 17:00 EPWA 031700Z 32009KT CAVOK 19/17 Q1008 NOSIG
ENGM - Oslo-Gardermoen, Norvegia
Ultimo Aggiornamento: Lunedì 03 Agosto 2020 19:20 CEST
Sereno
Sereno
 Wind from Nord-Ovest
Vento: Nord-Ovest 11 km/h
Temperatura: 18°C
Punto di Rugiada: 6°C
Umidità: 46%
Barometro: 1006 hPa
Condizioni: Sereno
Visibilità: superiore a 10 km
2020/08/03 17:20 ENGM 031720Z 32006KT 270V350 CAVOK 18/06 Q1006 NOSIG
 
LJLJ - Ljubljana Joze Pucnik, Slovenia
Ultimo Aggiornamento: Lunedì 03 Agosto 2020 19:00 CEST
Pioggia Leggera, Acquazzoni, Prevalentemente Nuvoloso
Pioggia Leggera, Acquazzoni, Prevalentemente Nuvoloso
 Wind from Sud-Est
Vento: Sud-Est 11 km/h
Temperatura: 21°C
Punto di Rugiada: 19°C
Umidità: 88%
Barometro: 1005 hPa
Condizioni: Pioggia Leggera, Acquazzoni
Nuvole: Prevalentemente Nuvoloso
Visibilità: 10 km
Nuvole nel Dettaglio: Qualche Nuvola 610 m
Parzialmente Nuvoloso 1524 m
Prevalentemente Nuvoloso 3658 m
2020/08/03 17:00 LJLJ 031700Z 14006KT 9999 -SHRA FEW020TCU SCT050 BKN120 21/19 Q1005 NOSIG
LYBE - Belgrado-Nikola Tesla, Serbia
Ultimo Aggiornamento: Lunedì 03 Agosto 2020 19:00 CEST
Sereno
Sereno
 Wind from Est-Sud-Est
Vento: Est-Sud-Est 22 km/h
Temperatura: 32°C
Punto di Rugiada: 15°C
Umidità: 36%
Barometro: 1005 hPa
Condizioni: Sereno
Visibilità: superiore a 10 km
2020/08/03 17:00 LYBE 031700Z 12012KT CAVOK 32/15 Q1005 NOSIG
LDZA - Zagabria-Franjo Tudman, Croazia
Ultimo Aggiornamento: Lunedì 03 Agosto 2020 19:00 CEST
Pioggia con temporale, Qualche Nuvola
Pioggia con temporale, Qualche Nuvola
 Wind from Nord-Nord-Ovest
Vento: Nord-Nord-Ovest 11 km/h
Temperatura: 23°C
Punto di Rugiada: 19°C
Umidità: 78%
Barometro: 1005 hPa
Condizioni: Pioggia con temporale
Nuvole: Qualche Nuvola
Visibilità: 10 km
Nuvole nel Dettaglio: Qualche Nuvola 1067 m
2020/08/03 17:00 LDZA 031700Z 33006KT 260V360 9999 TSRA FEW035CB 23/19 Q1005 TEMPO TL1730 24015KT 2000 TSGR BECMG FM1800 NSW FEW035
 
LQSA - Sarajevo, Bosnia-Erzegovina
Ultimo Aggiornamento: Lunedì 03 Agosto 2020 19:00 CEST
Sereno
Sereno
 Wind from Sud
Vento: Sud 17 km/h
Temperatura: 29°C
Punto di Rugiada: 12°C
Umidità: 35%
Barometro: 1007 hPa
Condizioni: Sereno
Visibilità: superiore a 10 km
2020/08/03 17:00 LQSA 031700Z 17009KT 130V200 CAVOK 29/12 Q1007 NOSIG
LATI - Tirana, Albania
Ultimo Aggiornamento: Lunedì 03 Agosto 2020 19:20 CEST
Sereno
Sereno
 Wind from Ovest-Sud-Ovest
Vento: Ovest-Sud-Ovest 7 km/h
Temperatura: 30°C
Heat Index: 29°C
Punto di Rugiada: 15°C
Umidità: 40%
Barometro: 1007 hPa
Condizioni: Sereno
Visibilità: superiore a 10 km
2020/08/03 17:20 LATI 031720Z 25004KT CAVOK 30/15 Q1007 NOSIG
LEPA - Palma de Mallorca, Spagna
Ultimo Aggiornamento: Lunedì 03 Agosto 2020 19:00 CEST
Prevalentemente Nuvoloso
Prevalentemente Nuvoloso
 Wind from Nord-Est
Vento: Nord-Est 15 km/h
Temperatura: 28°C
Heat Index: 29°C
Punto di Rugiada: 18°C
Umidità: 55%
Barometro: 1011 hPa
Nuvole: Prevalentemente Nuvoloso
Visibilità: 10 km
Nuvole nel Dettaglio: Qualche Nuvola 549 m
Prevalentemente Nuvoloso 1158 m
2020/08/03 17:00 LEPA 031700Z 05008KT 9999 FEW018 BKN038 28/18 Q1011 NOSIG
 
GCLP - Gran Canaria, Spagna
Ultimo Aggiornamento: Lunedì 03 Agosto 2020 19:00 CEST
Qualche Nuvola
Qualche Nuvola
 Wind from Nord
Vento: Nord 52 km/h, Raffica: 72 km/h
Temperatura: 27°C
Heat Index: 28°C
Punto di Rugiada: 18°C
Umidità: 58%
Barometro: 1015 hPa
Nuvole: Qualche Nuvola
Visibilità: 10 km
Nuvole nel Dettaglio: Qualche Nuvola 610 m
2020/08/03 17:00 GCLP 031700Z 01028G39KT 9999 FEW020 27/18 Q1015 NOSIG
LXGB - Gibraltar International Airport
Ultimo Aggiornamento: Lunedì 03 Agosto 2020 18:50 CEST
Sereno
Sereno
 Wind from Sud-Sud-Ovest
Vento: Sud-Sud-Ovest 26 km/h
Temperatura: 26°C
Punto di Rugiada: 18°C
Umidità: 61%
Barometro: 1011 hPa
Condizioni: Sereno
Visibilità: superiore a 10 km
2020/08/03 16:50 LXGB 031650Z 21014KT CAVOK 26/18 Q1011 NOSIG RMK BLU BLU
LGAV - Atene-Eleftherios Venizelos, Grecia
Ultimo Aggiornamento: Lunedì 03 Agosto 2020 19:20 CEST
Sereno
Sereno
 Wind from Nord-Nord-Est
Vento: Nord-Nord-Est 13 km/h
Temperatura: 26°C
Punto di Rugiada: 16°C
Umidità: 54%
Barometro: 1010 hPa
Condizioni: Sereno
Visibilità: superiore a 10 km
2020/08/03 17:20 LGAV 031720Z 02007KT CAVOK 26/16 Q1010 NOSIG